METAR Data
IDs: Format: Raw Decoded Include TAF

Data at: 1559 UTC 18 Feb 2019

METAR for:KCAV (Clarion Muni, IA, US)
Text:KCAV 181555Z AUTO 33007KT 10SM CLR M16/M19 A3042 RMK AO2 PWINO
Temperature:-16.0°C ( 3°F)
Dewpoint:-19.0°C ( -2°F) [RH = 78%]
Pressure (altimeter):30.42 inches Hg (1030.2 mb)
Winds:from the NNW (330 degrees) at 8 MPH (7 knots; 3.6 m/s)
Visibility:10 or more sm (16+ km)
Ceiling:at least 12,000 feet AGL
Clouds:sky clear below 12,000 feet AGL
QC Flag:automated observation with no human augmentation